Time;durP1;ratioP1;P1;durP2;ratioP2;P2;SDS_P1;SDS_P2;PMS_P1;PMS_P2;Temp;Humidity;BMP_temperature;BMP_pressure;BME280_temperature;BME280_humidity;BME280_pressure;Samples;Min_cycle;Max_cycle;Signal;HPM_P1;HPM_P2
2023/04/27 00:01:48;;;;;;;8.33;2.00;;;;;;;2.05;68.25;99474.26;1762210;80;21490;-61
2023/04/27 00:04:15;;;;;;;4.90;1.62;;;;;;;2.06;67.70;99477.23;1762493;80;21713;-60
2023/04/27 00:06:42;;;;;;;5.77;1.83;;;;;;;2.03;67.62;99470.85;1760017;80;21011;-61
2023/04/27 00:09:08;;;;;;;6.00;1.55;;;;;;;2.00;67.75;99464.88;1761993;80;21467;-61
2023/04/27 00:11:35;;;;;;;4.33;1.65;;;;;;;1.99;68.13;99473.48;1760650;80;21077;-61
2023/04/27 00:14:01;;;;;;;4.58;1.40;;;;;;;2.02;68.69;99475.16;1762396;80;20987;-61
2023/04/27 00:16:27;;;;;;;7.28;2.25;;;;;;;2.03;68.00;99478.58;1754909;80;20951;-60
2023/04/27 00:18:54;;;;;;;4.45;1.32;;;;;;;2.01;68.81;99478.14;1760762;80;20980;-61
2023/04/27 00:21:20;;;;;;;6.62;1.67;;;;;;;1.99;68.18;99472.19;1760347;80;21020;-60
2023/04/27 00:23:47;;;;;;;4.12;1.80;;;;;;;1.99;68.44;99480.36;1758020;80;20921;-61
2023/04/27 00:26:13;;;;;;;5.80;2.10;;;;;;;2.01;68.95;99482.01;1760097;80;20995;-61
2023/04/27 00:28:39;;;;;;;5.72;1.95;;;;;;;2.05;68.60;99474.26;1764604;80;20965;-61
2023/04/27 00:31:05;;;;;;;10.68;2.83;;;;;;;1.97;68.22;99479.09;1761039;80;21000;-61
2023/04/27 00:33:32;;;;;;;8.05;1.98;;;;;;;1.91;68.56;99480.48;1759216;80;21051;-60
2023/04/27 00:36:02;;;;;;;5.40;1.80;;;;;;;1.92;69.10;99479.59;1761522;80;21023;-61
2023/04/27 00:38:29;;;;;;;4.40;1.77;;;;;;;1.89;68.76;99471.92;1756116;80;21019;-60
2023/04/27 00:41:03;;;;;;;5.45;1.98;;;;;;;1.86;69.01;99473.25;1762861;80;20979;-61
2023/04/27 00:43:30;;;;;;;6.67;1.80;;;;;;;1.85;68.89;99483.16;1762040;80;21158;-60
2023/04/27 00:45:56;;;;;;;10.90;1.70;;;;;;;1.84;68.79;99484.01;1794875;78;21060;-61
2023/04/27 00:48:24;;;;;;;5.23;1.30;;;;;;;1.85;68.97;99484.44;1800988;78;21561;-61
2023/04/27 00:50:50;;;;;;;3.47;1.67;;;;;;;1.86;69.11;99476.27;1800512;78;21030;-60
2023/04/27 00:53:17;;;;;;;5.10;1.65;;;;;;;1.83;68.95;99479.75;1800045;78;21485;-61
2023/04/27 00:55:44;;;;;;;6.20;1.67;;;;;;;1.84;69.45;99484.01;1794197;78;20965;-60
2023/04/27 00:58:10;;;;;;;5.17;1.62;;;;;;;1.88;69.45;99480.53;1794548;78;21060;-61
2023/04/27 01:00:37;;;;;;;4.78;1.90;;;;;;;1.86;69.40;99484.84;1797467;78;20938;-61
2023/04/27 01:03:04;;;;;;;10.13;2.05;;;;;;;1.87;69.58;99483.95;1801606;78;20899;-60
2023/04/27 01:05:31;;;;;;;3.50;1.57;;;;;;;1.91;69.81;99483.05;1799152;78;20993;-61
2023/04/27 01:07:57;;;;;;;4.47;1.47;;;;;;;1.92;69.66;99481.32;1801066;78;20986;-61
2023/04/27 01:10:23;;;;;;;5.42;1.67;;;;;;;1.92;69.76;99487.31;1796728;78;21014;-61
2023/04/27 01:12:50;;;;;;;2.70;1.62;;;;;;;1.94;69.97;99485.58;1792934;78;20986;-61
2023/04/27 01:15:16;;;;;;;3.98;1.75;;;;;;;1.95;69.83;99484.69;1797632;78;21060;-61
2023/04/27 01:17:42;;;;;;;5.45;1.80;;;;;;;1.90;70.11;99486.48;1797360;78;21631;-61
2023/04/27 01:20:10;;;;;;;8.03;1.70;;;;;;;1.92;70.46;99482.61;1801137;78;20950;-61
2023/04/27 01:22:37;;;;;;;4.40;1.77;;;;;;;1.92;70.58;99488.60;1798380;78;21034;-61
2023/04/27 01:25:06;;;;;;;4.92;1.60;;;;;;;1.88;69.91;99486.97;1799685;78;21061;-61
2023/04/27 01:27:33;;;;;;;6.33;1.70;;;;;;;1.84;70.88;99486.58;1792550;78;21049;-61
2023/04/27 01:29:59;;;;;;;3.53;1.57;;;;;;;1.87;70.57;99486.53;1794311;78;21096;-61
2023/04/27 01:32:26;;;;;;;4.62;1.60;;;;;;;1.85;70.74;99488.30;1802418;78;20943;-60
2023/04/27 01:34:52;;;;;;;5.90;1.82;;;;;;;1.86;70.22;99487.42;1797742;78;20937;-61
2023/04/27 01:37:18;;;;;;;4.92;1.60;;;;;;;1.82;70.99;99488.36;1796824;78;21262;-61
2023/04/27 01:39:45;;;;;;;4.35;1.52;;;;;;;1.84;70.72;99486.58;1795352;78;21571;-61
2023/04/27 01:42:11;;;;;;;7.33;1.57;;;;;;;1.86;70.92;99487.42;1793914;78;20935;-61
2023/04/27 01:44:37;;;;;;;7.22;1.85;;;;;;;1.86;70.98;99491.72;1793840;78;21013;-61
2023/04/27 01:47:04;;;;;;;5.85;1.90;;;;;;;1.85;71.32;99493.45;1799893;78;21053;-60
2023/04/27 01:49:30;;;;;;;9.03;1.77;;;;;;;1.85;71.89;99493.45;1798245;78;21220;-61
2023/04/27 01:51:56;;;;;;;5.55;1.92;;;;;;;1.84;71.24;99493.02;1796781;78;20934;-61
2023/04/27 01:54:23;;;;;;;4.97;1.90;;;;;;;1.85;71.43;99497.72;1795796;78;21596;-61
2023/04/27 01:56:49;;;;;;;3.95;1.50;;;;;;;1.83;71.19;99499.05;1795519;78;21533;-61
2023/04/27 01:59:15;;;;;;;7.65;1.80;;;;;;;1.81;71.68;99495.64;1788811;78;20989;-61
2023/04/27 02:01:42;;;;;;;5.83;1.90;;;;;;;1.81;71.66;99498.66;1795043;78;21057;-61
2023/04/27 02:04:08;;;;;;;3.33;1.65;;;;;;;1.80;71.89;99495.23;1793120;78;20918;-61
2023/04/27 02:06:35;;;;;;;9.58;2.45;;;;;;;1.80;71.74;99495.23;1791387;78;21509;-60
2023/04/27 02:09:01;;;;;;;10.23;2.20;;;;;;;1.79;71.76;99501.24;1798211;78;21489;-61
2023/04/27 02:11:27;;;;;;;4.10;1.80;;;;;;;1.80;71.86;99502.97;1798414;78;20914;-61
2023/04/27 02:13:54;;;;;;;4.25;1.75;;;;;;;1.82;72.28;99503.80;1795232;78;21029;-60
2023/04/27 02:16:20;;;;;;;8.28;2.15;;;;;;;1.80;71.73;99510.69;1795565;78;21918;-61
2023/04/27 02:18:47;;;;;;;5.30;1.72;;;;;;;1.76;71.98;99507.31;1795052;78;21406;-61
2023/04/27 02:21:14;;;;;;;4.72;1.57;;;;;;;1.77;71.98;99505.59;1796643;78;21040;-61
2023/04/27 02:23:40;;;;;;;4.72;1.85;;;;;;;1.78;72.46;99506.84;1798448;78;21011;-61
2023/04/27 02:26:06;;;;;;;6.60;1.70;;;;;;;1.75;72.34;99500.45;1786071;78;21001;-61
2023/04/27 02:28:33;;;;;;;5.60;2.00;;;;;;;1.72;72.05;99506.09;1795212;78;20931;-61
2023/04/27 02:30:59;;;;;;;6.83;2.02;;;;;;;1.69;72.65;99504.84;1798111;78;21470;-60
2023/04/27 02:33:25;;;;;;;6.03;1.75;;;;;;;1.70;72.74;99498.81;1798354;78;21026;-61
2023/04/27 02:35:52;;;;;;;5.17;1.57;;;;;;;1.69;72.61;99503.56;1798089;78;20935;-61
2023/04/27 02:38:18;;;;;;;4.85;1.65;;;;;;;1.68;72.86;99505.70;1794391;78;21524;-61
2023/04/27 02:40:44;;;;;;;7.65;2.22;;;;;;;1.62;72.30;99504.06;1795941;78;21045;-61
2023/04/27 02:43:11;;;;;;;6.62;1.87;;;;;;;1.55;73.06;99508.47;1792976;78;21044;-60
2023/04/27 02:45:37;;;;;;;4.40;1.98;;;;;;;1.55;72.52;99503.31;1773322;78;21576;-61
2023/04/27 02:48:05;;;;;;;7.53;2.02;;;;;;;1.53;72.58;99505.05;1758034;80;21007;-61
2023/04/27 02:50:31;;;;;;;4.97;1.87;;;;;;;1.51;72.86;99506.81;1757950;80;20957;-61
2023/04/27 02:52:58;;;;;;;5.50;1.75;;;;;;;1.52;73.17;99509.80;1756470;80;21024;-61
2023/04/27 02:55:26;;;;;;;5.53;2.17;;;;;;;1.51;74.16;99512.38;1778107;78;21017;-61
2023/04/27 02:57:53;;;;;;;5.17;1.87;;;;;;;1.49;72.90;99511.13;1760639;80;21012;-61
2023/04/27 03:00:19;;;;;;;11.48;2.00;;;;;;;1.46;73.74;99517.60;1759739;80;21528;-61
2023/04/27 03:02:46;;;;;;;3.92;1.70;;;;;;;1.47;73.25;99525.73;1761397;80;20966;-61
2023/04/27 03:05:12;;;;;;;4.92;2.22;;;;;;;1.43;74.25;99524.08;1762563;80;21048;-61
2023/04/27 03:07:38;;;;;;;4.72;2.02;;;;;;;1.46;74.36;99527.89;1763470;80;21064;-60
2023/04/27 03:10:05;;;;;;;7.75;1.98;;;;;;;1.50;74.22;99524.84;1760050;80;20949;-61
2023/04/27 03:12:32;;;;;;;6.50;1.65;;;;;;;1.54;74.67;99526.08;1759949;80;20954;-61
2023/04/27 03:14:58;;;;;;;6.22;2.12;;;;;;;1.58;74.36;99527.31;1765270;80;20954;-60
2023/04/27 03:17:24;;;;;;;7.85;2.98;;;;;;;1.61;74.30;99527.27;1769899;80;21066;-60
2023/04/27 03:19:51;;;;;;;6.83;2.00;;;;;;;1.61;74.07;99529.84;1762581;80;21024;-60
2023/04/27 03:22:17;;;;;;;5.75;2.35;;;;;;;1.62;74.10;99536.67;1759464;80;21081;-61
2023/04/27 03:24:44;;;;;;;5.50;2.10;;;;;;;1.61;74.13;99537.56;1756890;80;20977;-60
2023/04/27 03:27:11;;;;;;;9.90;2.35;;;;;;;1.66;74.70;99543.50;1760577;80;21032;-61
2023/04/27 03:29:38;;;;;;;4.85;1.98;;;;;;;1.74;74.95;99537.81;1764542;80;21005;-61
2023/04/27 03:32:05;;;;;;;7.97;3.00;;;;;;;1.80;74.41;99545.44;1762337;80;21065;-60
2023/04/27 03:34:31;;;;;;;4.80;2.05;;;;;;;1.80;74.53;99546.73;1760608;80;21009;-60
2023/04/27 03:36:57;;;;;;;7.45;2.00;;;;;;;1.85;74.88;99543.66;1761436;80;21409;-61
2023/04/27 03:39:24;;;;;;;6.92;2.42;;;;;;;1.94;74.93;99547.38;1757066;80;21016;-61
2023/04/27 03:41:50;;;;;;;6.80;2.33;;;;;;;2.03;75.21;99548.11;1753639;80;21095;-61
2023/04/27 03:44:16;;;;;;;10.55;2.60;;;;;;;2.15;75.28;99551.77;1758347;80;21599;-60
2023/04/27 03:46:42;;;;;;;8.60;2.05;;;;;;;2.25;75.31;99554.62;1783352;78;21029;-61
2023/04/27 03:49:09;;;;;;;4.92;1.95;;;;;;;2.35;75.04;99553.61;1791416;78;20990;-61
2023/04/27 03:51:37;;;;;;;6.05;2.02;;;;;;;2.44;74.91;99547.45;1795401;78;21295;-61
2023/04/27 03:54:03;;;;;;;4.53;1.77;;;;;;;2.49;74.71;99552.50;1798413;78;21036;-61
2023/04/27 03:56:29;;;;;;;5.05;2.02;;;;;;;2.57;75.25;99548.07;1786399;78;20989;-61
2023/04/27 03:58:56;;;;;;;6.67;2.27;;;;;;;2.69;75.59;99553.03;1796966;78;20990;-61
2023/04/27 04:01:23;;;;;;;4.83;2.02;;;;;;;2.80;75.40;99559.25;1795093;78;21501;-60
2023/04/27 04:03:50;;;;;;;5.53;1.70;;;;;;;2.91;75.50;99562.07;1798004;78;20981;-61
2023/04/27 04:06:17;;;;;;;7.03;2.35;;;;;;;3.01;75.57;99559.31;1793569;78;21092;-61
2023/04/27 04:08:43;;;;;;;7.15;1.90;;;;;;;3.12;75.79;99557.38;1796424;78;21053;-61
2023/04/27 04:11:09;;;;;;;5.55;2.08;;;;;;;3.20;75.49;99561.95;1794115;78;21006;-61
2023/04/27 04:13:35;;;;;;;4.70;1.75;;;;;;;3.24;75.54;99564.86;1799336;78;21045;-61
2023/04/27 04:16:08;;;;;;;5.03;2.08;;;;;;;3.29;75.37;99563.05;1789093;78;21141;-61
2023/04/27 04:18:35;;;;;;;6.65;2.27;;;;;;;3.31;75.49;99566.45;1793638;78;21037;-61
2023/04/27 04:21:02;;;;;;;20.27;11.75;;;;;;;3.38;75.63;99567.61;1794880;78;21663;-60
2023/04/27 04:23:28;;;;;;;40.78;22.60;;;;;;;3.46;75.56;99573.47;1795064;78;21572;-60
2023/04/27 04:25:56;;;;;;;8.90;2.35;;;;;;;3.55;75.79;99574.11;1791662;78;21817;-60
2023/04/27 04:28:23;;;;;;;4.30;2.20;;;;;;;3.71;76.29;99570.77;1795356;78;21387;-60
2023/04/27 04:30:50;;;;;;;4.95;2.42;;;;;;;3.88;76.05;99577.30;1767976;78;21524;-61
2023/04/27 04:33:20;;;;;;;7.33;2.50;;;;;;;3.92;76.08;99564.71;1795156;78;21029;-61
2023/04/27 04:35:46;;;;;;;5.00;1.80;;;;;;;4.06;75.92;99578.61;1797269;78;21020;-61
2023/04/27 04:38:13;;;;;;;6.85;3.62;;;;;;;4.17;76.01;99580.50;1796441;78;21014;-61
2023/04/27 04:40:41;;;;;;;10.68;6.40;;;;;;;4.32;75.98;99579.31;1796664;78;21052;-61
2023/04/27 04:43:07;;;;;;;44.75;40.40;;;;;;;4.42;75.76;99590.66;1791929;78;21064;-61
2023/04/27 04:45:34;;;;;;;34.55;30.80;;;;;;;4.54;75.89;99581.78;1797349;78;21308;-61
2023/04/27 04:48:00;;;;;;;33.60;30.37;;;;;;;4.62;75.82;99582.44;1799268;78;20978;-61
2023/04/27 04:50:27;;;;;;;11.15;6.03;;;;;;;4.78;75.94;99575.11;1797656;78;20986;-61
2023/04/27 04:52:54;;;;;;;54.90;47.88;;;;;;;4.91;75.78;99575.20;1796860;78;21092;-61
2023/04/27 04:55:20;;;;;;;63.87;50.73;;;;;;;5.03;75.77;99580.49;1800999;78;21477;-61
2023/04/27 04:57:46;;;;;;;6.12;2.60;;;;;;;5.15;75.73;99580.18;1796654;78;21021;-61
2023/04/27 05:00:13;;;;;;;12.13;3.05;;;;;;;5.24;75.69;99586.84;1802242;78;20980;-61
2023/04/27 05:02:40;;;;;;;6.53;2.10;;;;;;;5.31;75.58;99587.51;1797681;78;20958;-63
2023/04/27 05:05:08;;;;;;;11.85;2.70;;;;;;;5.34;75.63;99595.19;1803300;78;21088;-62
2023/04/27 05:07:37;;;;;;;5.42;2.77;;;;;;;5.41;75.64;99586.37;1796513;78;20954;-61
2023/04/27 05:10:04;;;;;;;7.05;2.77;;;;;;;5.55;75.83;99592.00;1798962;78;21015;-62
2023/04/27 05:12:35;;;;;;;5.65;2.55;;;;;;;5.56;75.34;99591.09;1797829;78;21040;-62
2023/04/27 05:14:59;;;;;;;5.47;2.80;;;;;;;5.50;75.26;99586.09;1780661;79;20997;-62
2023/04/27 05:17:25;;;;;;;6.20;2.60;;;;;;;5.46;75.28;99592.27;1795265;78;21051;-62
2023/04/27 05:19:52;;;;;;;7.28;2.37;;;;;;;5.52;75.51;99594.68;1798197;78;21064;-62
2023/04/27 05:22:18;;;;;;;6.12;2.92;;;;;;;5.54;75.49;99599.34;1801444;78;21060;-61
2023/04/27 05:24:49;;;;;;;7.03;2.80;;;;;;;5.65;75.60;99600.79;1798911;78;20981;-60
2023/04/27 05:27:14;;;;;;;8.10;2.90;;;;;;;5.76;75.58;99606.05;1793231;78;21068;-61
2023/04/27 05:29:41;;;;;;;6.47;2.12;;;;;;;5.86;75.56;99596.28;1791649;78;21080;-60
2023/04/27 05:32:08;;;;;;;4.83;2.30;;;;;;;5.92;75.38;99605.16;1798423;79;20941;-61
2023/04/27 05:34:35;;;;;;;9.80;2.37;;;;;;;6.02;75.48;99604.03;1794895;78;21005;-61
2023/04/27 05:37:01;;;;;;;8.18;2.47;;;;;;;6.17;75.79;99603.16;1800393;78;21030;-61
2023/04/27 05:39:28;;;;;;;4.72;2.08;;;;;;;6.49;75.92;99606.00;1799635;78;20935;-61
2023/04/27 05:41:54;;;;;;;6.97;2.12;;;;;;;6.72;75.58;99610.02;1780056;78;21029;-60
2023/04/27 05:44:20;;;;;;;5.05;2.10;;;;;;;6.86;75.23;99609.55;1794872;78;20934;-60
2023/04/27 05:46:47;;;;;;;4.65;1.98;;;;;;;6.88;74.80;99604.29;1798027;78;21021;-61
2023/04/27 05:49:13;;;;;;;6.60;2.45;;;;;;;6.77;74.25;99614.19;1799119;78;21580;-61
2023/04/27 05:51:40;;;;;;;4.73;1.60;;;;;;;6.75;74.63;99613.37;1795027;78;20999;-60
2023/04/27 05:54:09;;;;;;;4.87;1.87;;;;;;;6.80;74.67;99611.03;1765171;79;21018;-60
2023/04/27 05:56:36;;;;;;;7.35;2.05;;;;;;;6.94;75.19;99612.70;1745628;81;21542;-60
2023/04/27 05:59:03;;;;;;;4.40;1.72;;;;;;;7.23;75.12;99605.67;1791869;78;20977;-60
2023/04/27 06:01:29;;;;;;;5.05;1.82;;;;;;;7.38;74.89;99602.52;1792237;78;20985;-62
2023/04/27 06:04:00;;;;;;;4.42;1.60;;;;;;;7.70;75.79;99599.21;1796062;78;21006;-61
2023/04/27 06:06:23;;;;;;;4.50;1.57;;;;;;;7.92;74.15;99608.31;1789662;78;21017;-62
2023/04/27 06:08:50;;;;;;;5.08;2.20;;;;;;;8.09;74.62;99605.06;1795574;80;20936;-61
2023/04/27 06:11:16;;;;;;;3.75;1.50;;;;;;;8.28;74.41;99607.80;1791478;80;21057;-61
2023/04/27 06:13:43;;;;;;;3.90;1.82;;;;;;;8.47;74.23;99597.54;1796088;78;21001;-61
2023/04/27 06:16:09;;;;;;;6.78;2.33;;;;;;;8.57;74.18;99592.36;1792791;78;20965;-62
2023/04/27 06:18:35;;;;;;;5.58;1.62;;;;;;;8.74;73.75;99583.86;1795243;80;20933;-61
2023/04/27 06:21:02;;;;;;;7.08;2.05;;;;;;;8.74;73.19;99583.39;1796893;78;21006;-61
2023/04/27 06:23:28;;;;;;;7.58;1.70;;;;;;;8.81;73.79;99581.37;1790951;78;20926;-61
2023/04/27 06:25:55;;;;;;;4.70;1.80;;;;;;;8.97;73.57;99585.48;1794598;78;21504;-61
2023/04/27 06:28:21;;;;;;;4.20;1.70;;;;;;;9.17;73.60;99585.92;1793099;78;21586;-61
2023/04/27 06:30:52;;;;;;;4.80;1.50;;;;;;;9.42;74.01;99592.20;1791546;78;21004;-61
2023/04/27 06:33:18;;;;;;;4.95;1.70;;;;;;;9.67;73.25;99595.01;1790445;80;21073;-61
2023/04/27 06:35:45;;;;;;;3.72;1.50;;;;;;;9.74;72.25;99588.58;1798053;78;22283;-61
2023/04/27 06:38:11;;;;;;;3.67;1.57;;;;;;;9.64;72.01;99572.53;1796022;79;20974;-61
2023/04/27 06:40:38;;;;;;;6.93;1.90;;;;;;;9.64;72.01;99572.53;1793171;78;21577;-61
2023/04/27 06:43:05;;;;;;;5.03;1.30;;;;;;;9.39;71.29;99583.22;1790301;78;20977;-61
2023/04/27 06:45:32;;;;;;;7.03;2.08;;;;;;;9.08;71.95;99587.16;1794042;78;21040;-64
2023/04/27 06:48:00;;;;;;;4.03;1.60;;;;;;;9.03;71.79;99591.72;1793835;78;21036;-62
2023/04/27 06:50:28;;;;;;;7.73;3.20;;;;;;;8.84;71.43;99596.02;1800196;78;21136;-63
2023/04/27 06:52:53;;;;;;;;;;;;;;;8.58;71.09;99595.34;1799946;78;20925;-63
2023/04/27 06:55:20;;;;;;;6.42;1.90;;;;;;;8.34;71.05;99603.64;1793452;78;20090;-63
2023/04/27 06:57:46;;;;;;;3.87;1.90;;;;;;;8.09;70.62;99597.27;1792413;78;21037;-63
2023/04/27 07:00:13;;;;;;;5.72;1.80;;;;;;;7.85;70.87;99598.61;1801606;78;20996;-63
2023/04/27 07:02:40;;;;;;;5.80;1.70;;;;;;;7.78;71.05;99608.84;1796217;78;20989;-64
2023/04/27 07:05:09;;;;;;;4.17;1.62;;;;;;;8.37;72.58;99606.58;1797792;78;20907;-64
2023/04/27 07:07:35;;;;;;;2.83;1.10;;;;;;;9.08;73.31;99601.49;1797092;78;20998;-64
2023/04/27 07:10:01;;;;;;;2.60;1.20;;;;;;;10.32;73.76;99587.65;1791488;78;20891;-63
2023/04/27 07:12:27;;;;;;;4.30;1.47;;;;;;;10.94;71.07;99589.73;1800028;78;21595;-64
2023/04/27 07:14:54;;;;;;;6.30;1.30;;;;;;;11.01;69.47;99582.89;1797316;78;21732;-63
2023/04/27 07:17:21;;;;;;;2.52;1.00;;;;;;;11.59;67.85;99586.38;1796906;78;20996;-64
2023/04/27 07:19:47;;;;;;;4.05;1.50;;;;;;;12.09;70.12;99587.57;1794345;78;20930;-64
2023/04/27 07:22:14;;;;;;;3.77;1.77;;;;;;;12.36;68.51;99582.20;1793630;78;21009;-65
2023/04/27 07:24:41;;;;;;;2.95;1.17;;;;;;;12.85;69.52;99592.45;1799237;78;20993;-64
2023/04/27 07:27:07;;;;;;;3.15;1.15;;;;;;;12.66;67.33;99596.16;1796056;78;21024;-64
2023/04/27 07:29:34;;;;;;;2.92;1.05;;;;;;;12.36;67.75;99596.60;1793995;78;20974;-64
2023/04/27 07:32:00;;;;;;;3.37;0.97;;;;;;;11.93;66.35;99602.89;1794343;78;21032;-64
2023/04/27 07:34:28;;;;;;;3.20;1.00;;;;;;;11.43;65.67;99608.12;1796581;78;20974;-64
2023/04/27 07:36:54;;;;;;;2.10;1.10;;;;;;;10.83;65.95;99610.33;1795734;78;21012;-64
2023/04/27 07:39:21;;;;;;;2.85;0.90;;;;;;;10.36;66.13;99616.11;1804299;78;21659;-64
2023/04/27 07:41:49;;;;;;;2.05;1.10;;;;;;;10.07;65.85;99624.00;1800354;78;21037;-64
2023/04/27 07:44:18;;;;;;;3.80;1.27;;;;;;;9.32;66.03;99636.50;1797773;78;21539;-64
2023/04/27 07:46:47;;;;;;;2.60;0.70;;;;;;;9.32;66.03;99636.50;1800504;78;21013;-64
2023/04/27 07:49:14;;;;;;;2.87;1.07;;;;;;;9.12;66.58;99636.90;1799296;78;21438;-64
2023/04/27 07:51:41;;;;;;;2.65;1.00;;;;;;;9.03;66.40;99635.99;1793112;78;20981;-64
2023/04/27 07:54:07;;;;;;;;;;;;;;;9.00;66.67;99632.69;1803959;78;20917;-64
2023/04/27 07:56:34;;;;;;;2.62;1.10;;;;;;;8.86;65.60;99635.86;1796019;78;20134;-64
2023/04/27 07:59:00;;;;;;;1.85;0.80;;;;;;;8.73;65.09;99644.16;1802860;78;20975;-64
2023/04/27 08:01:26;;;;;;;1.90;0.90;;;;;;;8.97;65.94;99641.47;1796020;78;21473;-64
2023/04/27 08:03:52;;;;;;;1.02;0.50;;;;;;;9.55;65.81;99638.96;1803722;78;21607;-64
2023/04/27 08:06:19;;;;;;;1.92;0.80;;;;;;;11.88;66.96;99610.17;1795790;78;20977;-64
2023/04/27 08:08:45;;;;;;;1.33;0.87;;;;;;;11.88;66.96;99610.17;1797060;78;21107;-64
2023/04/27 08:11:11;;;;;;;2.55;0.78;;;;;;;13.49;66.67;99630.58;1802618;78;21806;-65
2023/04/27 08:13:38;;;;;;;1.30;0.62;;;;;;;15.09;66.31;99625.17;1799051;78;21111;-65
2023/04/27 08:16:06;;;;;;;5.55;1.37;;;;;;;16.73;66.77;99617.53;1799023;78;20958;-65
2023/04/27 08:18:32;;;;;;;2.70;0.90;;;;;;;18.29;66.28;99618.30;1794581;78;20925;-65
2023/04/27 08:20:59;;;;;;;4.00;1.10;;;;;;;19.49;65.02;99625.52;1800431;78;20969;-65
2023/04/27 08:23:31;;;;;;;;;;;;;;;20.57;61.81;99620.45;1802996;78;21045;-65
2023/04/27 08:25:58;;;;;;;3.33;1.20;;;;;;;21.23;62.21;99613.91;1794489;78;20095;-66
2023/04/27 08:28:24;;;;;;;3.20;1.10;;;;;;;21.57;63.95;99620.06;1795404;78;20957;-66
2023/04/27 08:30:50;;;;;;;6.28;1.57;;;;;;;21.98;62.82;99612.58;1796885;78;21509;-66
2023/04/27 08:33:18;;;;;;;3.60;1.35;;;;;;;22.38;60.65;99614.06;1792553;78;21033;-65
2023/04/27 08:35:45;;;;;;;3.65;1.20;;;;;;;22.24;59.25;99623.39;1799726;78;20950;-65
2023/04/27 08:38:11;;;;;;;1.55;0.82;;;;;;;22.08;58.64;99620.02;1796988;78;20902;-65
2023/04/27 08:40:42;;;;;;;4.10;0.82;;;;;;;20.79;44.41;99651.19;1789329;78;20998;-65
2023/04/27 08:43:09;;;;;;;1.95;0.62;;;;;;;18.32;51.60;99670.91;1800027;78;20965;-65
2023/04/27 08:45:36;;;;;;;1.35;0.53;;;;;;;16.31;53.85;99690.03;1794366;78;21009;-64
2023/04/27 08:48:03;;;;;;;1.17;0.53;;;;;;;14.83;53.67;99708.89;1799662;78;21017;-64
2023/04/27 08:50:30;;;;;;;1.12;0.60;;;;;;;13.64;55.52;99703.13;1800647;78;21032;-65
2023/04/27 08:52:56;;;;;;;1.20;0.60;;;;;;;12.68;54.72;99688.58;1798441;78;21010;-65
2023/04/27 08:55:23;;;;;;;3.15;0.60;;;;;;;12.08;56.00;99689.27;1805563;78;21514;-64
2023/04/27 08:57:57;;;;;;;1.57;0.53;;;;;;;12.05;56.94;99687.30;1799067;78;21064;-65
2023/04/27 09:00:25;;;;;;;2.12;0.70;;;;;;;12.95;57.99;99684.02;1797296;78;21072;-64
2023/04/27 09:02:51;;;;;;;2.33;0.80;;;;;;;14.55;58.04;99677.83;1790634;78;21143;-64
2023/04/27 09:05:20;;;;;;;1.43;0.80;;;;;;;16.09;57.56;99674.91;1797005;78;21022;-64
2023/04/27 09:08:01;;;;;;;2.08;1.07;;;;;;;17.14;56.17;99670.79;1800164;78;20985;-64
2023/04/27 09:10:30;;;;;;;3.42;0.60;;;;;;;18.02;57.17;99664.45;1794765;78;21037;-65
2023/04/27 09:12:58;;;;;;;1.77;0.80;;;;;;;18.78;55.33;99667.19;1799709;78;20978;-65
2023/04/27 09:15:26;;;;;;;1.92;1.00;;;;;;;18.92;54.60;99668.21;1798714;78;21512;-65
2023/04/27 09:17:54;;;;;;;;;;;;;;;18.32;53.43;99666.95;1779081;79;21082;-65
2023/04/27 09:20:21;;;;;;;4.08;1.72;;;;;;;17.47;52.21;99667.39;1771078;80;20147;-64
2023/04/27 09:22:51;;;;;;;3.62;1.27;;;;;;;16.90;53.79;99666.41;1781027;79;20973;-65
2023/04/27 09:25:34;;;;;;;2.52;1.22;;;;;;;16.15;52.61;99661.30;1794691;79;20954;-64
2023/04/27 09:28:00;;;;;;;3.00;1.05;;;;;;;15.38;53.24;99667.94;1795576;79;21022;-64
2023/04/27 09:30:28;;;;;;;3.50;0.98;;;;;;;14.97;52.54;99668.91;1791038;79;20985;-63
2023/04/27 09:33:00;;;;;;;3.98;0.98;;;;;;;14.34;52.36;99665.58;1781653;79;20950;-63
2023/04/27 09:35:33;;;;;;;2.83;1.20;;;;;;;14.02;53.26;99668.42;1799537;79;20969;-64
2023/04/27 09:38:00;;;;;;;2.45;1.15;;;;;;;13.93;52.72;99669.00;1797947;79;21020;-63
2023/04/27 09:40:29;;;;;;;3.42;1.17;;;;;;;14.22;54.18;99669.80;1798137;78;21084;-63
2023/04/27 09:43:00;;;;;;;2.47;1.05;;;;;;;16.00;56.07;99663.72;1799225;78;21607;-65
2023/04/27 09:45:27;;;;;;;2.08;0.80;;;;;;;18.54;55.60;99652.34;1799245;78;21037;-65
2023/04/27 09:47:53;;;;;;;2.67;0.90;;;;;;;20.61;54.79;99647.53;1797384;78;21061;-65
2023/04/27 09:50:21;;;;;;;1.90;0.90;;;;;;;22.45;54.62;99647.54;1800680;78;20910;-65
2023/04/27 09:52:48;;;;;;;2.52;1.10;;;;;;;23.96;52.63;99647.86;1797718;78;20998;-63
2023/04/27 09:55:18;;;;;;;2.33;0.95;;;;;;;24.61;50.12;99634.72;1794849;78;20966;-63
2023/04/27 09:58:08;;;;;;;2.37;1.07;;;;;;;24.33;51.09;99645.64;1798029;78;21092;-65
2023/04/27 10:00:46;;;;;;;2.83;0.95;;;;;;;24.35;49.75;99635.64;1799384;78;21004;-66
2023/04/27 10:03:32;;;;;;;2.58;0.90;;;;;;;23.22;46.87;99647.42;1721565;81;21009;-66
2023/04/27 10:06:11;;;;;;;4.08;0.80;;;;;;;21.51;47.54;99651.66;1731006;81;21080;-65
2023/04/27 10:08:38;;;;;;;1.45;0.65;;;;;;;19.12;45.81;99673.65;1725305;81;21466;-65
2023/04/27 10:11:14;;;;;;;;;;;;;;;17.36;46.26;99669.52;1710749;81;21543;-63
2023/04/27 10:13:52;;;;;;;7.35;4.83;;;;;;;16.77;46.52;99677.01;1713047;81;20112;-63
2023/04/27 10:16:20;;;;;;;3.98;2.17;;;;;;;18.27;49.16;99671.75;1724360;81;21545;-64
2023/04/27 10:18:55;;;;;;;2.87;1.50;;;;;;;19.84;45.61;99652.49;1731201;81;20981;-66
2023/04/27 10:21:27;;;;;;;2.37;0.95;;;;;;;19.59;45.57;99655.55;1732485;81;21587;-64
2023/04/27 10:23:54;;;;;;;3.55;1.17;;;;;;;20.09;46.49;99653.00;1738998;81;21006;-64
2023/04/27 10:26:25;;;;;;;4.28;0.93;;;;;;;21.14;47.17;99639.12;1742728;81;20982;-64
2023/04/27 10:29:08;;;;;;;1.60;0.70;;;;;;;22.33;44.88;99646.92;1744544;81;21516;-65
2023/04/27 10:31:37;;;;;;;1.80;1.17;;;;;;;24.23;45.88;99641.47;1732503;81;21678;-64
2023/04/27 10:34:09;;;;;;;3.58;1.10;;;;;;;25.78;42.88;99623.25;1692805;81;21186;-65
2023/04/27 10:36:38;;;;;;;2.65;0.90;;;;;;;26.49;44.36;99642.30;1725747;81;21021;-65
2023/04/27 10:39:26;;;;;;;4.40;1.20;;;;;;;27.60;42.23;99633.38;1732108;81;21005;-65
2023/04/27 10:41:55;;;;;;;2.02;0.90;;;;;;;28.17;42.69;99629.17;1753186;81;22253;-64
2023/04/27 10:44:31;;;;;;;2.20;1.02;;;;;;;29.42;41.75;99632.75;1787728;79;21026;-68
2023/04/27 10:46:58;;;;;;;2.45;0.82;;;;;;;30.02;42.07;99632.56;1770411;79;21145;-64
2023/04/27 10:49:27;;;;;;;2.05;0.80;;;;;;;31.46;42.75;99631.91;1771002;79;21001;-63
2023/04/27 10:51:56;;;;;;;3.20;0.70;;;;;;;33.20;42.27;99626.21;1768208;79;20988;-65
2023/04/27 10:54:28;;;;;;;1.65;0.88;;;;;;;33.42;37.50;99632.03;1772345;79;20922;-66
2023/04/27 10:57:03;;;;;;;4.45;1.17;;;;;;;34.01;39.10;99632.44;1770806;79;21002;-64
2023/04/27 10:59:30;;;;;;;3.17;1.07;;;;;;;33.84;37.83;99632.23;1771101;79;20882;-66
2023/04/27 11:01:56;;;;;;;4.78;1.27;;;;;;;32.66;34.79;99642.55;1773042;79;20950;-66
2023/04/27 11:04:22;;;;;;;2.85;1.30;;;;;;;30.71;34.28;99645.54;1773889;79;20977;-67
2023/04/27 11:06:49;;;;;;;3.40;1.47;;;;;;;30.15;32.73;99642.57;1776239;79;20986;-65
2023/04/27 11:09:26;;;;;;;2.85;1.05;;;;;;;29.82;30.66;99649.16;1774920;79;20963;-66
2023/04/27 11:11:53;;;;;;;6.85;1.02;;;;;;;29.91;32.64;99647.95;1774924;79;21022;-65
2023/04/27 11:14:23;;;;;;;3.30;0.95;;;;;;;30.42;31.29;99646.22;1770027;79;21122;-67
2023/04/27 11:16:49;;;;;;;1.27;0.70;;;;;;;31.01;32.51;99653.28;1772755;79;21027;-66
2023/04/27 11:19:16;;;;;;;2.37;0.80;;;;;;;31.44;31.93;99665.30;1755198;79;21085;-66
2023/04/27 11:21:43;;;;;;;;;;;;;;;31.68;29.60;99654.89;1777698;79;21090;-65
2023/04/27 11:24:12;;;;;;;3.08;0.93;;;;;;;31.81;26.60;99648.61;1771367;79;20222;-65
2023/04/27 11:26:38;;;;;;;3.27;0.85;;;;;;;31.52;29.15;99651.29;1773915;79;21025;-63
2023/04/27 11:29:12;;;;;;;3.20;1.10;;;;;;;31.24;29.38;99642.89;1776502;79;21034;-67
2023/04/27 11:31:42;;;;;;;3.30;0.90;;;;;;;30.01;28.25;99660.53;1776967;79;21448;-64
2023/04/27 11:34:11;;;;;;;2.58;0.80;;;;;;;27.55;27.15;99674.66;1779980;79;21044;-66
2023/04/27 11:36:37;;;;;;;4.00;1.00;;;;;;;26.05;27.70;99675.52;1774796;79;21007;-65
2023/04/27 11:39:09;;;;;;;4.12;1.12;;;;;;;24.39;26.73;99680.68;1772778;79;21533;-65
2023/04/27 11:41:47;;;;;;;5.47;1.37;;;;;;;22.72;27.40;99685.23;1791903;78;21012;-66